Sunday, January 21, 2018, 8:36 PM GMT
Back to Local

CWST, La Pocatiere

Location: , , Canada Lat: 47.35
Local Time: 8:36 PM GMT (20:36 GMT) Lon: -70.033
Time Zone: GMT Elev: 101 ft

Show me the last for .
Show Decoded

2018-01-21 20:00 METAR CWST 212000Z AUTO 22014KT M08/M14 RMK AO1 SOG 10 3010 PK WND 22017/1957
                 SLP199 T10761138 =
2018-01-21 19:00 METAR CWST 211900Z AUTO 23014G20KT M08/M14 RMK AO1 SOG 10 3002 PK WND 22020/1854
                 SLP192 T10771139 =
2018-01-21 18:00 METAR CWST 211800Z AUTO 23012KT M08/M13 RMK AO1 SOG 10 0000 SLP189 T10761134 =
2018-01-21 17:00 METAR CWST 211700Z AUTO 23013KT M08/M14 RMK AO1 SOG 10 0005 SLP189 T10821139 =
2018-01-21 16:00 METAR CWST 211600Z AUTO 23009KT M08/M14 RMK AO1 SOG 10 1009 SLP190 T10751141 =
2018-01-21 15:00 METAR CWST 211500Z AUTO 23007KT M10/M15 RMK AO1 SOG 10 1016 SLP189 T10951146 =
2018-01-21 14:00 METAR CWST 211400Z AUTO 25002KT M10/M15 RMK AO1 SOG 10 1022 SLP184 T10971151 =
2018-01-21 13:00 METAR CWST 211300Z AUTO 22003KT M11/M15 RMK AO1 SOG 10 3025 SLP181 T11111154 =
2018-01-21 12:00 METAR CWST 211200Z AUTO 22008KT M11/M15 RMK AO1 SOG 10 3027 SLP173 T11101148 =
2018-01-21 11:00 METAR CWST 211100Z AUTO 11004KT M11/M15 RMK AO1 SOG 10 2022 SLP161 T11111150 =
2018-01-21 10:00 METAR CWST 211000Z AUTO 13003KT M11/M15 RMK AO1 SOG 10 1028 SLP155 T11091146 =
2018-01-21 09:00 METAR CWST 210900Z AUTO 04004KT M09/M14 RMK AO1 SOG 10 1029 SLP145 T10881143 =
2018-01-21 08:00 METAR CWST 210800Z AUTO 35004KT M08/M14 RMK AO1 SOG 10 3030 SLP139 T10791135 =
2018-01-21 07:00 METAR CWST 210700Z AUTO 35004KT M08/M13 RMK AO1 SOG 10 3026 SLP127 T10781133 =
2018-01-21 06:00 METAR CWST 210600Z AUTO 09002KT M09/M13 RMK AO1 SOG 10 1025 SLP116 T10891129 =
2018-01-21 05:00 METAR CWST 210500Z AUTO 32006KT M06/M13 RMK AO1 SOG 10 1038 SLP109 T10611132 =
2018-01-21 04:00 METAR CWST 210400Z AUTO 30012KT M05/M13 RMK AO1 SOG 10 1041 PK WND 30018/0343
                 SLP101 T10511129 =
2018-01-21 03:00 METAR CWST 210300Z AUTO 31008KT M04/M12 RMK AO1 PRESRR SOG 10 1053 PK WND
                 29021/0227 SLP091 T10421119 =
2018-01-21 02:00 METAR CWST 210200Z AUTO 31010G18KT M03/M10 RMK AO1 SOG 10 1052 PK WND 29021/0107
                 SLP071 T10301102 =
2018-01-21 01:00 METAR CWST 210100Z AUTO 31011G20KT M02/M09 RMK AO1 PRESRR SOG 10 1073 PK WND
                 30024/0013 SLP060 T10181091 =
2018-01-21 00:00 METAR CWST 210000Z AUTO 31008G17KT M00/M07 RMK AO1 SOG 10 1077 PK WND 30027/2305
                 SLP038 T10011072 =
2018-01-20 23:00 METAR CWST 202300Z AUTO 30020G27KT 01/M08 RMK AO1 PRESRR SOG 10 3074 PK WND
                 30028/2217 SLP018 T00081081 =
2018-01-20 22:00 METAR CWST 202200Z AUTO 29014G20KT 03/M05 RMK AO1 PRESRR SOG 10 3050 PK WND
                 23029/2108 SLP986 T00261046 =
2018-01-20 21:00 METAR CWST 202100Z AUTO 23024KT 02/M01 RMK AO1 SOG 10 3035 PK WND 22035/2034
                 SLP960 T00221009 =

Support USWX by starting your Amazon purchase here.